KOMK

Omak Airport

Omak, Washington, USA
METAR KOMK 280053Z AUTO 21009KT 10SM CLR 28/09 A2998 RMK AO2 SLP147 T02780094
Observed Flight Rules
May-28 @ 00:53 UTC (34 minutes ago) Visual Flight Rules
Wind Visibility Clouds
210° at 9 knots 10 miles
  • Clear skies
Temperatures Readings
Current 28°C / 82°F
Dewpoint 9°C / 48°F
Humidity 30%
Altimeter 29.98" Hg
Pressure 1014.7 hPa
Elevation 395
METAR KOMK 280053Z AUTO 21009KT 10SM CLR 28/09 A2998 RMK AO2 SLP147 T02780094
Observed Flight Rules
May-28 @ 00:53 UTC
(34 minutes ago)
VFR
Wind Visibility
210° at 9 knots 10 miles
Clouds
  • Clear skies
Temperature Dewpoint
28°C / 82°F 9°C / 48°F
Humidity Altimeter Pressure
30% 29.98" Hg 1014.7 hPa